Time;durP1;ratioP1;P1;durP2;ratioP2;P2;SDS_P1;SDS_P2;PMS_P1;PMS_P2;Temp;Humidity;BMP_temperature;BMP_pressure;BME280_temperature;BME280_humidity;BME280_pressure;Samples;Min_cycle;Max_cycle;Signal;HPM_P1;HPM_P2
2022/01/16 00:04:08;;;;;;;7.03;4.20;;;;;;;2.53;56.14;97868.53;5069473;28;20208;-90
2022/01/16 00:06:38;;;;;;;6.03;3.90;;;;;;;2.32;55.79;97848.94;5068390;28;20181;-87
2022/01/16 00:09:06;;;;;;;8.67;4.50;;;;;;;2.44;55.73;97880.47;5067642;28;20229;-87
2022/01/16 00:11:35;;;;;;;6.93;4.43;;;;;;;2.53;56.56;97882.16;5050961;28;20194;-86
2022/01/16 00:14:06;;;;;;;6.00;3.97;;;;;;;2.56;56.06;97892.38;5069146;28;20187;-86
2022/01/16 00:16:33;;;;;;;8.07;4.93;;;;;;;2.61;56.55;97897.50;5049875;28;20294;-86
2022/01/16 00:19:02;;;;;;;4.70;3.53;;;;;;;2.56;56.42;97897.50;5067519;28;20184;-85
2022/01/16 00:21:32;;;;;;;9.07;4.27;;;;;;;2.02;56.62;97810.66;5084241;28;20229;-87
2022/01/16 00:23:59;;;;;;;8.03;4.40;;;;;;;2.43;55.85;97891.53;5073757;28;20702;-86
2022/01/16 00:26:27;;;;;;;7.90;4.50;;;;;;;2.62;55.52;97912.81;5070388;28;20205;-87
2022/01/16 00:28:54;;;;;;;10.23;5.10;;;;;;;2.66;56.18;97952.88;5073560;28;20625;-87
2022/01/16 00:31:23;;;;;;;6.00;3.43;;;;;;;2.68;55.98;97988.69;5071649;28;20264;-87
2022/01/16 00:33:51;;;;;;;7.67;4.47;;;;;;;2.51;55.86;97963.13;5054518;28;20699;-87
2022/01/16 00:36:21;;;;;;;6.97;4.20;;;;;;;2.83;56.18;98044.94;5052098;28;20192;-88
2022/01/16 00:38:50;;;;;;;9.80;4.77;;;;;;;2.92;54.94;98055.19;5053710;28;20197;-87
2022/01/16 00:41:19;;;;;;;7.57;4.70;;;;;;;2.56;55.46;97963.94;5069228;28;20193;-87
2022/01/16 00:43:51;;;;;;;9.37;4.30;;;;;;;2.90;54.53;97965.66;5053470;28;20224;-87
2022/01/16 00:46:21;;;;;;;10.07;5.43;;;;;;;3.04;55.06;97935.78;5068707;28;20209;-88
2022/01/16 00:48:49;;;;;;;7.53;4.83;;;;;;;2.79;55.83;97874.44;5069009;28;20584;-87
2022/01/16 00:51:17;;;;;;;7.20;4.73;;;;;;;2.82;54.86;97790.91;5068216;28;20287;-88
2022/01/16 00:53:44;;;;;;;12.03;5.03;;;;;;;2.59;54.98;97758.59;5067170;28;20192;-90
2022/01/16 00:56:13;;;;;;;8.67;5.53;;;;;;;2.59;55.22;97802.91;5070941;28;20197;-87
2022/01/16 00:58:43;;;;;;;9.67;5.27;;;;;;;2.57;55.05;97812.28;5052965;28;20755;-89
2022/01/16 01:01:12;;;;;;;8.23;5.20;;;;;;;2.49;55.91;97806.34;5051092;28;20197;-87
2022/01/16 01:03:40;;;;;;;8.73;5.07;;;;;;;2.67;54.98;97819.06;5050987;28;20191;-88
2022/01/16 01:06:08;;;;;;;11.13;5.43;;;;;;;2.70;55.86;97862.53;5068963;28;21005;-87
2022/01/16 01:08:40;;;;;;;12.27;6.40;;;;;;;2.68;55.70;97879.56;5068153;28;20208;-87
2022/01/16 01:11:12;;;;;;;14.47;7.10;;;;;;;2.79;55.60;97918.78;5100488;28;20258;-91
2022/01/16 01:16:48;;;;;;;13.43;6.10;;;;;;;2.74;56.10;97892.34;5068704;28;20202;-88
2022/01/16 01:19:17;;;;;;;8.30;5.80;;;;;;;2.72;55.66;97899.16;5068036;28;20189;-87
2022/01/16 01:21:44;;;;;;;9.80;6.10;;;;;;;2.67;54.87;97902.59;5068430;28;20224;-86
2022/01/16 01:24:12;;;;;;;10.10;5.77;;;;;;;2.42;56.06;97881.31;5065395;28;20652;-87
2022/01/16 01:26:50;;;;;;;11.77;6.37;;;;;;;2.37;55.80;97913.69;5069997;28;20189;-87
2022/01/16 01:29:20;;;;;;;11.53;6.53;;;;;;;2.35;56.08;97905.16;5074477;28;20212;-87
2022/01/16 01:31:48;;;;;;;9.23;5.13;;;;;;;2.42;56.19;97917.09;5072254;28;20193;-87
2022/01/16 01:34:15;;;;;;;7.67;5.43;;;;;;;2.26;57.55;97902.59;5074227;28;20238;-87
2022/01/16 01:36:48;;;;;;;8.80;5.53;;;;;;;2.28;57.48;97904.31;5055072;28;20193;-86
2022/01/16 01:39:19;;;;;;;8.70;4.57;;;;;;;2.24;56.87;97932.41;5039662;28;20275;-87
2022/01/16 01:41:54;;;;;;;8.60;5.20;;;;;;;2.25;56.94;97937.53;5071970;28;20205;-87
2022/01/16 01:52:42;;;;;;;5.97;3.90;;;;;;;1.93;58.50;97945.97;5072408;28;20348;-86
2022/01/16 01:55:09;;;;;;;8.93;4.20;;;;;;;1.46;58.33;97898.19;5073454;28;20185;-85
2022/01/16 01:57:37;;;;;;;5.93;3.67;;;;;;;1.74;58.55;97949.31;5073235;28;20189;-84
2022/01/16 02:00:06;;;;;;;8.37;4.90;;;;;;;1.82;58.70;97955.31;5072269;28;20201;-84
2022/01/16 02:02:45;;;;;;;4.93;3.67;;;;;;;1.78;58.93;97962.13;5073147;28;20213;-84
2022/01/16 02:05:13;;;;;;;7.07;3.93;;;;;;;1.74;59.71;97957.84;5072975;28;20645;-90
2022/01/16 02:07:40;;;;;;;9.47;5.17;;;;;;;1.74;59.71;97952.75;5055253;28;20957;-87
2022/01/16 02:10:08;;;;;;;7.30;4.33;;;;;;;1.74;59.97;97960.41;5055497;28;20229;-83
2022/01/16 02:12:38;;;;;;;6.33;4.03;;;;;;;1.60;59.72;97944.19;5071680;28;20200;-84
2022/01/16 02:15:31;;;;;;;7.50;3.80;;;;;;;1.70;59.14;97976.56;5072729;28;20201;-85
2022/01/16 02:29:45;;;;;;;7.07;4.60;;;;;;;1.74;59.74;97954.44;5073065;28;20184;-84
2022/01/16 02:32:12;;;;;;;6.17;4.33;;;;;;;1.76;59.41;97953.59;5073664;28;20193;-85
2022/01/16 02:34:42;;;;;;;5.27;3.57;;;;;;;1.49;58.60;97900.75;5053081;28;20596;-84
2022/01/16 02:37:13;;;;;;;8.97;5.50;;;;;;;1.59;59.58;97915.25;5053547;28;20269;-90
2022/01/16 02:39:48;;;;;;;8.27;4.33;;;;;;;1.55;58.63;97902.47;5053334;28;20284;-84
2022/01/16 02:42:18;;;;;;;8.00;3.93;;;;;;;1.58;58.92;97905.91;5050051;28;20181;-85
2022/01/16 02:45:00;;;;;;;6.67;4.23;;;;;;;1.70;59.03;97927.19;5050328;28;20202;-86
2022/01/16 02:47:29;;;;;;;8.23;4.47;;;;;;;1.43;59.56;97882.00;5050954;28;20190;-85
2022/01/16 02:50:18;;;;;;;6.93;4.07;;;;;;;1.60;58.48;97916.09;5032430;28;20221;-88
2022/01/16 02:52:45;;;;;;;6.10;4.00;;;;;;;1.87;58.32;97953.63;5050918;28;20208;-86
2022/01/16 02:55:15;;;;;;;11.40;4.67;;;;;;;1.93;58.95;97935.78;5049663;28;20228;-85
2022/01/16 02:57:43;;;;;;;8.93;5.07;;;;;;;1.74;60.01;97954.44;5050264;28;20182;-85
2022/01/16 03:00:11;;;;;;;8.93;5.07;;;;;;;1.61;61.10;97948.44;5049878;28;20281;-89
2022/01/16 03:02:38;;;;;;;9.80;5.30;;;;;;;1.49;60.88;97941.59;5048196;28;20261;-85
2022/01/16 03:05:07;;;;;;;9.33;5.70;;;;;;;1.49;62.22;97956.91;5050102;28;20190;-85
2022/01/16 03:07:35;;;;;;;11.10;5.77;;;;;;;1.34;62.09;97935.59;5048741;28;20190;-85
2022/01/16 03:12:54;;;;;;;11.43;6.00;;;;;;;1.43;63.31;97956.88;5048808;28;20201;-85
2022/01/16 03:15:22;;;;;;;8.20;5.23;;;;;;;1.16;63.20;97910.81;5050395;28;20644;-88
2022/01/16 03:23:40;;;;;;;13.10;7.00;;;;;;;1.00;61.39;97944.75;5051244;28;20217;-87
2022/01/16 03:26:07;;;;;;;12.90;6.93;;;;;;;0.94;61.19;97957.44;5050039;28;20189;-85
2022/01/16 03:28:34;;;;;;;13.33;7.43;;;;;;;0.74;61.10;97959.03;5048331;28;20225;-85
2022/01/16 03:31:02;;;;;;;15.03;7.73;;;;;;;0.79;60.14;97957.34;5031868;28;20233;-85
2022/01/16 03:33:29;;;;;;;15.67;7.80;;;;;;;0.60;61.04;97945.28;5049973;28;20182;-86
2022/01/16 03:35:56;;;;;;;15.63;8.90;;;;;;;0.85;60.36;97975.22;5051503;28;20219;-85
2022/01/16 03:38:23;;;;;;;15.37;8.43;;;;;;;0.75;61.14;97961.56;5051731;28;20218;-91
2022/01/16 03:40:50;;;;;;;13.60;8.20;;;;;;;0.65;61.22;97946.19;5051624;28;20610;-87
2022/01/16 03:43:19;;;;;;;12.33;7.63;;;;;;;0.76;60.58;97947.13;5052136;28;20983;-85
2022/01/16 03:45:47;;;;;;;11.67;6.63;;;;;;;0.79;60.83;97978.59;5057747;28;20204;-84
2022/01/16 03:48:17;;;;;;;11.83;7.10;;;;;;;0.39;60.26;97940.88;5058183;28;20189;-86
2022/01/16 03:50:44;;;;;;;11.53;6.57;;;;;;;0.37;60.76;97951.94;5058447;28;20312;-88
2022/01/16 03:53:11;;;;;;;13.97;7.20;;;;;;;0.27;60.97;97939.97;5058264;28;20220;-88
2022/01/16 03:55:39;;;;;;;11.93;6.87;;;;;;;0.42;61.00;97960.44;5064789;28;20252;-88
2022/01/16 03:58:06;;;;;;;12.60;7.20;;;;;;;0.46;61.16;97973.22;5071724;28;20205;-90
2022/01/16 04:00:33;;;;;;;11.13;6.60;;;;;;;0.42;60.93;97965.53;5053579;28;20189;-91
2022/01/16 04:03:01;;;;;;;14.37;6.53;;;;;;;0.39;61.58;97996.94;5071877;28;20189;-90
2022/01/16 04:05:28;;;;;;;10.13;6.47;;;;;;;-0.02;62.71;97993.97;5068935;28;20518;-89
2022/01/16 04:07:59;;;;;;;9.33;6.13;;;;;;;0.03;63.77;97995.72;5053640;28;20183;-90
2022/01/16 04:10:26;;;;;;;10.87;6.67;;;;;;;-0.03;63.62;98002.47;5049586;28;20225;-89
2022/01/16 04:12:53;;;;;;;11.63;6.37;;;;;;;-0.27;63.99;97986.91;5048951;28;20200;-91
2022/01/16 04:17:48;;;;;;;11.40;6.10;;;;;;;-0.54;66.38;98001.84;5032138;28;20655;-91
2022/01/16 04:20:16;;;;;;;11.97;6.03;;;;;;;-0.55;66.59;97997.59;5054065;28;20181;-88
2022/01/16 04:22:45;;;;;;;11.27;6.30;;;;;;;-0.42;66.44;98013.88;5060912;28;20241;-91
2022/01/16 04:25:13;;;;;;;9.20;5.67;;;;;;;-0.49;65.83;98015.47;5032841;28;20208;-90
2022/01/16 04:27:41;;;;;;;12.23;6.20;;;;;;;-0.82;66.71;97979.41;5050611;28;20273;-90
2022/01/16 04:30:09;;;;;;;13.43;7.50;;;;;;;-0.79;66.36;97974.38;5048160;28;20691;-86
2022/01/16 04:32:37;;;;;;;13.10;6.10;;;;;;;-0.87;66.42;97965.81;5050537;28;20205;-89
2022/01/16 04:35:05;;;;;;;9.93;5.33;;;;;;;-1.00;66.65;97953.75;5050994;28;20189;-91
2022/01/16 04:37:32;;;;;;;8.77;5.57;;;;;;;-0.69;66.55;98010.94;5048105;28;20190;-87
2022/01/16 04:40:04;;;;;;;9.83;5.77;;;;;;;-0.72;66.10;98027.00;5049460;28;20240;-85
2022/01/16 04:45:17;;;;;;;10.53;6.20;;;;;;;-0.54;66.13;97990.81;5049624;28;20190;-87
2022/01/16 04:47:44;;;;;;;12.67;6.00;;;;;;;-0.64;65.28;97966.09;5047416;28;20201;-90
2022/01/16 04:50:13;;;;;;;11.77;6.33;;;;;;;-0.43;65.36;98002.81;5032132;28;20288;-86
2022/01/16 04:52:42;;;;;;;9.77;5.33;;;;;;;-0.23;65.51;98014.09;5049163;28;20724;-89
2022/01/16 04:55:11;;;;;;;13.20;6.77;;;;;;;-0.43;64.47;97987.56;5049425;28;20196;-87
2022/01/16 04:57:38;;;;;;;10.93;5.77;;;;;;;-0.64;65.73;97994.94;5047848;28;20284;-87
2022/01/16 05:00:10;;;;;;;8.77;6.07;;;;;;;-0.95;66.73;97986.03;5049831;28;20183;-90
2022/01/16 05:02:38;;;;;;;8.33;5.70;;;;;;;-1.49;67.67;97925.94;5047989;28;20291;-86
2022/01/16 05:05:06;;;;;;;11.87;6.27;;;;;;;-0.95;67.89;98023.31;5047842;28;20197;-85
2022/01/16 05:07:33;;;;;;;10.80;5.33;;;;;;;-1.19;67.32;97979.72;5030986;28;20194;-86
2022/01/16 05:10:03;;;;;;;18.73;5.93;;;;;;;-1.28;68.37;98023.66;5047396;28;20188;-87
2022/01/16 05:12:38;;;;;;;8.27;5.23;;;;;;;-1.44;68.62;98020.84;5029578;28;20263;-85
2022/01/16 05:17:51;;;;;;;7.63;4.17;;;;;;;-1.50;68.60;98018.16;5047107;28;20190;-88
2022/01/16 05:20:19;;;;;;;10.17;5.30;;;;;;;-1.97;68.15;97919.25;5030543;28;20200;-86
2022/01/16 05:22:47;;;;;;;9.00;6.20;;;;;;;-1.70;67.49;97989.91;5047344;28;20655;-87
2022/01/16 05:25:18;;;;;;;12.77;6.67;;;;;;;-1.62;67.36;98006.13;5037707;28;20200;-82
2022/01/16 05:27:46;;;;;;;20.13;9.53;;;;;;;-1.85;67.22;97992.19;5046203;28;20197;-86
2022/01/16 05:30:13;;;;;;;21.20;9.97;;;;;;;-1.67;66.65;98013.66;5051714;28;20317;-87
2022/01/16 05:32:40;;;;;;;26.40;12.27;;;;;;;-2.02;65.98;97953.00;5068019;28;20191;-86
2022/01/16 05:35:09;;;;;;;22.50;12.10;;;;;;;-1.70;65.92;98017.84;5067846;28;20324;-86
2022/01/16 05:37:36;;;;;;;17.00;10.00;;;;;;;-1.76;65.75;98008.44;5050750;28;20291;-91
2022/01/16 05:40:04;;;;;;;21.50;10.97;;;;;;;-1.68;65.58;98018.72;5067078;28;20203;-91
2022/01/16 05:42:32;;;;;;;18.20;9.50;;;;;;;-1.81;65.42;98015.13;5051264;28;20195;-86
2022/01/16 05:45:01;;;;;;;18.67;9.97;;;;;;;-1.95;65.74;98011.47;5067425;28;20184;-86
2022/01/16 05:47:29;;;;;;;15.37;9.27;;;;;;;-1.86;66.07;98029.41;5067737;28;20256;-88
2022/01/16 05:49:57;;;;;;;19.03;9.57;;;;;;;-1.84;66.13;98027.78;5073071;28;20283;-90
2022/01/16 05:52:43;;;;;;;15.87;8.00;;;;;;;-2.04;66.63;98023.97;5046617;28;20188;-86
2022/01/16 05:55:11;;;;;;;15.33;7.80;;;;;;;-2.09;66.74;98028.13;5031029;28;20215;-88
2022/01/16 05:57:39;;;;;;;13.03;6.97;;;;;;;-2.07;66.52;98031.56;5031194;28;20285;-91
2022/01/16 06:00:08;;;;;;;14.37;7.23;;;;;;;-2.16;66.89;98022.88;5047545;28;20190;-90
2022/01/16 06:02:36;;;;;;;12.43;6.97;;;;;;;-2.26;66.67;98014.25;5047081;28;20198;-86
2022/01/16 06:05:04;;;;;;;13.17;7.63;;;;;;;-2.03;66.25;98043.47;5036613;28;20266;-86
2022/01/16 06:07:31;;;;;;;15.73;7.80;;;;;;;-2.18;65.95;98015.25;5050019;28;20193;-88
2022/01/16 06:09:58;;;;;;;15.07;8.63;;;;;;;-1.99;66.31;98040.16;5048533;28;20684;-90
2022/01/16 06:12:26;;;;;;;24.83;7.30;;;;;;;-1.94;66.47;98051.25;5058530;28;20551;-88
2022/01/16 06:14:56;;;;;;;13.17;6.67;;;;;;;-2.08;66.07;98014.59;5070271;28;20733;-90
2022/01/16 06:17:23;;;;;;;10.70;6.57;;;;;;;-1.54;66.39;98070.59;5071941;28;20235;-87
2022/01/16 06:19:52;;;;;;;12.87;6.57;;;;;;;-1.47;65.55;98062.28;5054508;28;20195;-91
2022/01/16 06:22:20;;;;;;;13.07;6.77;;;;;;;-1.39;64.73;98055.63;5054067;28;20238;-91
2022/01/16 06:24:47;;;;;;;13.60;8.00;;;;;;;-1.28;65.21;98063.44;5072607;28;20325;-90
2022/01/16 06:27:14;;;;;;;12.13;7.40;;;;;;;-1.22;65.42;98079.66;5070625;28;20202;-88
2022/01/16 06:29:42;;;;;;;14.50;7.20;;;;;;;-1.48;65.37;98064.78;5072428;28;20196;-90
2022/01/16 06:32:09;;;;;;;15.43;8.37;;;;;;;-1.52;66.81;98080.78;5053671;28;20252;-87
2022/01/16 06:34:36;;;;;;;15.97;9.47;;;;;;;-1.64;67.07;98083.97;5072118;28;20611;-90
2022/01/16 06:37:04;;;;;;;22.03;10.03;;;;;;;-1.67;67.59;98102.53;5071645;28;20197;-90
2022/01/16 06:39:31;;;;;;;21.07;11.53;;;;;;;-1.68;67.47;98108.44;5071686;28;20187;-86
2022/01/16 06:41:58;;;;;;;21.77;11.90;;;;;;;-1.74;67.16;98092.25;5102573;28;20190;-87
2022/01/16 06:44:41;;;;;;;20.57;10.67;;;;;;;-1.45;67.20;98121.56;5062556;28;20276;-88
2022/01/16 06:47:09;;;;;;;21.27;10.90;;;;;;;-1.33;66.75;98116.72;5050261;28;20219;-86
2022/01/16 06:49:36;;;;;;;24.50;12.47;;;;;;;-1.37;66.58;98096.28;5064721;28;20224;-86
2022/01/16 06:52:04;;;;;;;35.30;15.13;;;;;;;-1.49;65.75;98091.88;5048010;28;20238;-86
2022/01/16 06:54:31;;;;;;;29.00;13.87;;;;;;;-1.41;66.32;98086.91;5031351;28;20390;-85
2022/01/16 06:56:58;;;;;;;21.47;11.70;;;;;;;-1.26;65.77;98100.75;5047969;28;20200;-86
2022/01/16 06:59:26;;;;;;;23.17;11.60;;;;;;;-1.11;66.38;98131.47;5082325;28;20299;-91
2022/01/16 07:01:53;;;;;;;26.40;12.97;;;;;;;-1.16;65.75;98094.13;5048019;28;20242;-86
2022/01/16 07:04:21;;;;;;;23.20;12.70;;;;;;;-0.85;66.01;98129.38;5031672;28;20200;-85
2022/01/16 07:07:10;;;;;;;20.83;11.23;;;;;;;-0.72;65.15;98133.81;5047645;28;20306;-86
2022/01/16 07:09:39;;;;;;;20.27;10.47;;;;;;;-0.74;65.32;98088.88;5052830;28;20246;-86
2022/01/16 07:12:08;;;;;;;20.57;10.80;;;;;;;-0.55;64.80;98140.03;5050858;28;20255;-85
2022/01/16 07:14:48;;;;;;;22.80;11.20;;;;;;;-0.56;64.82;98125.63;5048903;28;20257;-87
2022/01/16 07:17:23;;;;;;;19.30;10.93;;;;;;;-0.61;64.95;98106.00;5025300;28;20579;-87
2022/01/16 07:19:50;;;;;;;21.37;11.20;;;;;;;-0.40;64.17;98155.53;5064943;28;20198;-86
2022/01/16 07:22:21;;;;;;;19.70;10.23;;;;;;;-0.20;64.78;98137.97;5048139;28;20232;-87
2022/01/16 07:24:50;;;;;;;19.27;10.13;;;;;;;0.09;63.14;98138.38;5049680;28;20199;-85
2022/01/16 07:27:18;;;;;;;26.93;11.97;;;;;;;0.38;62.59;98148.06;5048640;28;20198;-86
2022/01/16 07:29:47;;;;;;;20.43;11.37;;;;;;;0.51;62.49;98113.41;5047948;28;20283;-87
2022/01/16 07:32:14;;;;;;;28.53;13.00;;;;;;;0.61;61.50;98112.66;5046964;28;20223;-85
2022/01/16 07:34:43;;;;;;;23.33;12.30;;;;;;;0.93;61.76;98149.50;5049484;28;20607;-85
2022/01/16 07:37:10;;;;;;;26.37;14.87;;;;;;;0.77;60.98;98111.97;5048669;28;20217;-85
2022/01/16 07:39:38;;;;;;;24.23;14.30;;;;;;;1.09;61.52;98128.44;5047158;28;20289;-86
2022/01/16 07:42:05;;;;;;;26.47;14.20;;;;;;;1.31;59.75;98142.19;5053393;28;20743;-86
2022/01/16 07:44:33;;;;;;;28.00;15.10;;;;;;;1.51;60.02;98159.38;5047457;28;20193;-86
2022/01/16 07:47:00;;;;;;;26.27;14.67;;;;;;;1.61;59.44;98147.53;5049463;28;20190;-85
2022/01/16 07:49:27;;;;;;;29.07;14.47;;;;;;;1.54;60.27;98118.56;5058458;28;20201;-86
2022/01/16 07:51:55;;;;;;;29.27;15.33;;;;;;;1.99;59.86;98160.53;5048078;28;20633;-86
2022/01/16 07:54:25;;;;;;;27.73;15.77;;;;;;;1.96;58.55;98157.97;5049452;28;20194;-90
2022/01/16 07:56:52;;;;;;;26.57;15.40;;;;;;;2.10;58.19;98148.69;5047898;28;20201;-84
2022/01/16 07:59:20;;;;;;;29.87;15.67;;;;;;;2.03;58.11;98122.25;5049776;28;20363;-86
2022/01/16 08:01:47;;;;;;;28.83;15.40;;;;;;;2.22;57.68;98143.63;5048236;28;20622;-86
2022/01/16 08:04:14;;;;;;;25.23;14.17;;;;;;;2.56;57.66;98181.25;5031089;28;20284;-86
2022/01/16 08:06:42;;;;;;;25.13;14.17;;;;;;;2.52;57.46;98179.53;5046877;28;20208;-88
2022/01/16 08:09:09;;;;;;;28.60;15.40;;;;;;;2.68;57.10;98180.47;5049267;28;20663;-86
2022/01/16 08:11:37;;;;;;;24.47;14.23;;;;;;;2.81;56.89;98182.19;5046392;28;20295;-87
2022/01/16 08:14:04;;;;;;;26.73;15.13;;;;;;;2.86;56.15;98158.34;5030693;28;20201;-86
2022/01/16 08:16:31;;;;;;;36.23;17.87;;;;;;;3.01;56.40;98170.31;5048588;28;20185;-86
2022/01/16 08:19:39;;;;;;;34.50;19.30;;;;;;;3.01;55.75;98162.66;5048900;28;20609;-86
2022/01/16 08:22:59;;;;;;;35.67;17.13;;;;;;;2.90;55.66;98151.53;5047637;28;20234;-86
2022/01/16 08:26:20;;;;;;;27.93;17.13;;;;;;;2.93;55.84;98151.53;5048489;28;20316;-86
2022/01/16 08:29:41;;;;;;;26.97;15.77;;;;;;;2.88;56.21;98143.00;5045997;28;20255;-85
2022/01/16 08:33:10;;;;;;;26.53;13.63;;;;;;;3.12;55.82;98161.81;5032112;28;20709;-84
2022/01/16 08:36:31;;;;;;;19.27;12.37;;;;;;;2.79;56.28;98119.94;5044809;28;20221;-85
2022/01/16 08:39:52;;;;;;;23.93;14.17;;;;;;;3.09;56.49;98158.41;5047894;28;20190;-87
2022/01/16 08:43:12;;;;;;;26.70;14.87;;;;;;;3.05;56.94;98152.41;5028531;28;20185;-87
2022/01/16 08:46:33;;;;;;;21.63;13.37;;;;;;;2.41;58.80;98160.75;5044735;28;20182;-85
2022/01/16 08:49:54;;;;;;;24.60;15.03;;;;;;;2.33;59.76;98126.63;5047022;28;20186;-84
2022/01/16 08:53:15;;;;;;;20.50;12.23;;;;;;;2.71;57.97;98144.66;5046016;28;20573;-87
2022/01/16 08:56:36;;;;;;;16.20;10.07;;;;;;;2.67;57.56;98159.16;5047534;28;20701;-85
2022/01/16 08:59:57;;;;;;;12.43;8.63;;;;;;;2.87;55.54;98157.47;5045610;28;20191;-85
2022/01/16 09:03:17;;;;;;;18.43;10.27;;;;;;;2.65;56.47;98124.19;5030981;28;20201;-86
2022/01/16 09:06:38;;;;;;;13.73;7.73;;;;;;;2.71;56.09;98122.50;5030321;28;20189;-86
2022/01/16 09:10:00;;;;;;;13.60;7.30;;;;;;;3.12;55.03;98145.59;5044750;28;20272;-86
2022/01/16 09:13:22;;;;;;;8.03;5.00;;;;;;;3.39;53.54;98120.00;5055929;28;20225;-87
2022/01/16 09:16:44;;;;;;;8.27;5.53;;;;;;;3.59;53.43;98135.34;5031193;28;20775;-88
2022/01/16 09:20:05;;;;;;;12.80;6.77;;;;;;;3.66;53.37;98119.13;5063838;28;20295;-88
2022/01/16 09:23:32;;;;;;;12.30;6.33;;;;;;;3.63;53.46;98126.81;5064767;28;20307;-86
2022/01/16 09:27:05;;;;;;;10.97;6.50;;;;;;;4.00;52.81;98121.63;5052508;28;20257;-86
2022/01/16 09:30:26;;;;;;;10.07;5.70;;;;;;;4.03;51.88;98105.38;5064738;28;20196;-87
2022/01/16 09:33:46;;;;;;;7.03;5.60;;;;;;;3.83;52.80;98102.03;5064243;28;20287;-86
2022/01/16 09:37:09;;;;;;;10.23;5.70;;;;;;;3.94;52.65;98101.13;5066551;28;20188;-86
2022/01/16 09:40:30;;;;;;;7.73;5.37;;;;;;;4.13;52.01;98117.31;5030434;28;20284;-87
2022/01/16 09:43:54;;;;;;;9.30;5.13;;;;;;;3.93;52.96;98111.38;5046399;28;20231;-88
2022/01/16 09:47:15;;;;;;;8.00;5.67;;;;;;;4.28;52.68;98101.03;5055679;28;20288;-91
2022/01/16 09:49:56;;;;;;;10.50;6.33;;;;;;;4.33;51.45;98096.75;5069343;28;20189;-85
2022/01/16 09:52:23;;;;;;;10.00;5.93;;;;;;;4.18;52.58;98099.34;5061114;28;20217;-86
2022/01/16 09:55:30;;;;;;;8.53;5.00;;;;;;;3.81;52.52;98080.69;5048559;28;20696;-85
2022/01/16 09:58:51;;;;;;;9.03;5.63;;;;;;;4.24;51.96;98097.63;5049856;28;20594;-86
2022/01/16 10:02:12;;;;;;;10.07;6.03;;;;;;;4.28;52.42;98099.31;5048930;28;20193;-87
2022/01/16 10:05:25;;;;;;;10.93;5.20;;;;;;;4.55;52.29;98082.94;5077813;28;20675;-85
2022/01/16 10:08:45;;;;;;;10.70;6.30;;;;;;;4.71;51.28;98080.28;5031203;28;20217;-87
2022/01/16 10:11:53;;;;;;;9.60;5.23;;;;;;;4.65;50.73;98085.44;5050464;28;20252;-85
2022/01/16 10:15:15;;;;;;;10.20;5.50;;;;;;;4.28;52.21;98058.28;5050979;28;20214;-85
2022/01/16 10:18:38;;;;;;;7.10;5.20;;;;;;;4.24;52.18;98084.81;5079066;28;20246;-90
2022/01/16 10:22:14;;;;;;;10.37;6.03;;;;;;;4.31;52.76;98071.09;5047752;28;20649;-86
2022/01/16 10:25:36;;;;;;;11.67;6.73;;;;;;;4.42;52.63;98061.63;5065063;28;20619;-85
2022/01/16 10:28:58;;;;;;;11.37;6.03;;;;;;;4.59;51.80;98058.97;5050183;28;20231;-86
2022/01/16 10:32:18;;;;;;;13.73;6.17;;;;;;;5.01;50.56;98057.84;5048895;28;20688;-86
2022/01/16 10:35:12;;;;;;;11.67;6.00;;;;;;;4.75;50.88;98045.19;5050857;28;20274;-86
2022/01/16 10:38:39;;;;;;;11.87;5.97;;;;;;;5.01;49.81;98038.13;5048585;28;20372;-89
2022/01/16 10:42:00;;;;;;;10.47;5.53;;;;;;;5.24;49.31;98045.66;5050870;28;20357;-84
2022/01/16 10:45:39;;;;;;;9.73;5.93;;;;;;;5.14;48.41;98033.75;5048279;28;20194;-85
2022/01/16 10:49:00;;;;;;;10.60;5.73;;;;;;;5.04;49.36;98020.16;5051166;28;20616;-88
2022/01/16 10:52:26;;;;;;;7.83;5.47;;;;;;;5.19;49.41;98006.34;5062055;28;20293;-86
2022/01/16 10:55:43;;;;;;;14.70;6.33;;;;;;;5.38;48.53;98021.53;5052724;28;20743;-87
2022/01/16 10:58:24;;;;;;;10.47;4.73;;;;;;;5.37;48.45;98021.56;5050956;28;20194;-86
2022/01/16 11:01:48;;;;;;;16.77;5.77;;;;;;;5.27;48.63;98014.81;5048227;28;20347;-86
2022/01/16 11:05:09;;;;;;;9.30;4.87;;;;;;;5.21;48.44;97990.06;5068605;28;20706;-86
2022/01/16 11:08:29;;;;;;;8.17;4.87;;;;;;;5.26;47.92;98013.09;5053398;28;20214;-87
2022/01/16 11:11:57;;;;;;;8.73;4.80;;;;;;;5.16;47.05;97978.97;5068769;28;20256;-85
2022/01/16 11:15:18;;;;;;;5.87;3.80;;;;;;;5.53;44.80;98007.69;5052255;28;20197;-88
2022/01/16 11:18:00;;;;;;;16.57;5.73;;;;;;;5.76;44.84;98003.16;5066995;28;20191;-85
2022/01/16 11:20:36;;;;;;;8.67;4.67;;;;;;;5.71;44.88;97968.94;5059100;28;20228;-87
2022/01/16 11:23:14;;;;;;;8.30;5.20;;;;;;;5.51;45.36;97958.91;5051986;28;20231;-83
2022/01/16 11:25:43;;;;;;;8.47;5.33;;;;;;;5.61;45.34;97977.63;5035403;28;20585;-83
2022/01/16 11:28:14;;;;;;;7.83;4.00;;;;;;;5.60;45.17;97993.94;5050611;28;20208;-85
2022/01/16 11:30:45;;;;;;;8.47;5.20;;;;;;;5.75;44.39;97980.88;5049184;28;20198;-85
2022/01/16 11:33:19;;;;;;;12.27;5.77;;;;;;;5.83;44.96;97985.97;5050668;28;20255;-84
2022/01/16 11:36:00;;;;;;;6.87;5.00;;;;;;;5.77;44.13;97972.31;5065554;28;20299;-85
2022/01/16 11:38:30;;;;;;;8.60;5.07;;;;;;;5.83;44.23;97970.53;5057968;28;20198;-85
2022/01/16 11:41:10;;;;;;;7.63;5.27;;;;;;;6.01;43.67;97986.63;5069448;28;20283;-86
2022/01/16 11:43:40;;;;;;;7.73;4.57;;;;;;;5.83;44.20;97948.28;5051635;28;20298;-84
2022/01/16 11:46:07;;;;;;;9.07;5.10;;;;;;;6.13;43.86;97971.03;5071594;28;20277;-85
2022/01/16 11:48:50;;;;;;;10.03;6.30;;;;;;;6.29;44.58;97967.38;5059298;28;20290;-85
2022/01/16 11:51:39;;;;;;;12.83;6.73;;;;;;;6.33;43.67;97963.88;5072885;28;20213;-86
2022/01/16 11:54:33;;;;;;;8.57;5.37;;;;;;;6.33;43.79;97958.72;5068566;28;20210;-85
2022/01/16 11:57:24;;;;;;;8.53;4.57;;;;;;;6.17;43.87;97957.25;5056077;28;20207;-86
2022/01/16 12:00:14;;;;;;;8.43;5.03;;;;;;;6.10;43.54;97965.91;5041624;28;20752;-87
2022/01/16 12:02:44;;;;;;;7.53;5.03;;;;;;;5.95;44.18;97968.72;5049490;28;20192;-87
2022/01/16 12:05:24;;;;;;;6.43;4.43;;;;;;;5.73;44.24;97931.22;5049093;28;20196;-86
2022/01/16 12:07:54;;;;;;;12.53;5.57;;;;;;;6.05;43.56;97966.84;5048037;28;20193;-85
2022/01/16 12:10:37;;;;;;;8.43;4.43;;;;;;;6.24;44.44;97956.31;5046503;28;20192;-89
2022/01/16 12:13:04;;;;;;;7.97;4.93;;;;;;;6.04;43.75;97909.44;5048638;28;20268;-88
2022/01/16 12:15:32;;;;;;;12.93;5.67;;;;;;;6.19;44.12;97904.09;5081495;28;20200;-85
2022/01/16 12:18:01;;;;;;;15.27;8.90;;;;;;;6.48;44.04;97958.53;5050914;28;20213;-86
2022/01/16 12:20:30;;;;;;;14.57;8.80;;;;;;;6.44;44.72;97950.88;5067904;28;20866;-85
2022/01/16 12:23:08;;;;;;;10.40;5.67;;;;;;;6.48;43.49;97955.94;5026694;28;20314;-84
2022/01/16 12:25:50;;;;;;;8.10;4.73;;;;;;;6.47;44.02;97940.53;5031937;28;20203;-84
2022/01/16 12:28:23;;;;;;;6.90;4.20;;;;;;;6.20;43.23;97894.66;5047629;28;20265;-84
2022/01/16 12:31:07;;;;;;;7.23;4.90;;;;;;;6.35;43.45;97931.28;5045549;28;20200;-85
2022/01/16 12:33:38;;;;;;;9.03;4.73;;;;;;;6.39;43.67;97943.22;5038889;28;20207;-82
2022/01/16 12:36:14;;;;;;;9.53;5.03;;;;;;;6.44;43.52;97944.00;5066686;28;20257;-83
2022/01/16 12:38:52;;;;;;;10.43;5.57;;;;;;;6.47;43.88;97946.50;5066949;28;20214;-82
2022/01/16 12:41:25;;;;;;;7.47;4.47;;;;;;;6.34;44.36;97919.28;5067067;28;20270;-83
2022/01/16 12:43:58;;;;;;;9.73;4.53;;;;;;;6.11;43.21;97912.78;5066369;28;20590;-86
2022/01/16 12:46:31;;;;;;;7.13;4.17;;;;;;;6.16;43.43;97939.28;5068083;28;20187;-81
2022/01/16 12:49:06;;;;;;;8.03;4.80;;;;;;;6.23;43.68;97954.59;5067297;28;20196;-87
2022/01/16 12:51:38;;;;;;;9.27;5.30;;;;;;;6.26;44.22;97949.44;5068331;28;20222;-86
2022/01/16 12:54:06;;;;;;;10.07;6.07;;;;;;;6.17;44.67;97930.69;5067757;28;20189;-87
2022/01/16 12:56:54;;;;;;;10.57;5.67;;;;;;;5.93;45.65;97916.47;5066774;28;20592;-87
2022/01/16 12:59:44;;;;;;;7.90;5.07;;;;;;;6.21;44.67;97943.47;5071962;28;20208;-85
2022/01/16 13:02:14;;;;;;;8.43;4.53;;;;;;;5.92;45.60;97937.03;5067968;28;20225;-87
2022/01/16 13:04:45;;;;;;;8.23;4.23;;;;;;;5.76;46.26;97928.66;5066941;28;20208;-86
2022/01/16 13:07:34;;;;;;;6.30;4.37;;;;;;;5.90;45.93;97938.75;5067494;28;20191;-85
2022/01/16 13:10:06;;;;;;;8.33;5.13;;;;;;;5.41;45.26;97861.44;5067020;28;20282;-85
2022/01/16 13:12:37;;;;;;;9.83;5.30;;;;;;;5.75;45.75;97914.06;5067888;28;20309;-86